sensor_id;sensor_type;location;lat;lon;timestamp;temperature;humidity
30300;DHT22;17110;52.602;12.998;2023-06-14T00:01:52;13.50;99.90
30300;DHT22;17110;52.602;12.998;2023-06-14T00:04:18;13.50;99.90
30300;DHT22;17110;52.602;12.998;2023-06-14T00:06:45;13.50;99.90
30300;DHT22;17110;52.602;12.998;2023-06-14T00:09:12;13.50;99.90
30300;DHT22;17110;52.602;12.998;2023-06-14T00:11:37;13.40;99.90
30300;DHT22;17110;52.602;12.998;2023-06-14T00:14:03;13.40;99.90
30300;DHT22;17110;52.602;12.998;2023-06-14T00:16:29;13.40;99.90
30300;DHT22;17110;52.602;12.998;2023-06-14T00:18:54;13.40;99.90
30300;DHT22;17110;52.602;12.998;2023-06-14T00:21:20;13.30;99.90
30300;DHT22;17110;52.602;12.998;2023-06-14T00:23:47;13.20;99.90
30300;DHT22;17110;52.602;12.998;2023-06-14T00:26:12;13.10;99.90
30300;DHT22;17110;52.602;12.998;2023-06-14T00:28:39;13.00;99.90
30300;DHT22;17110;52.602;12.998;2023-06-14T00:31:07;13.00;99.90
30300;DHT22;17110;52.602;12.998;2023-06-14T00:33:32;12.90;99.90
30300;DHT22;17110;52.602;12.998;2023-06-14T00:35:58;12.90;99.90
30300;DHT22;17110;52.602;12.998;2023-06-14T00:38:23;12.90;99.90
30300;DHT22;17110;52.602;12.998;2023-06-14T00:40:50;12.90;99.90
30300;DHT22;17110;52.602;12.998;2023-06-14T00:43:16;12.90;99.90
30300;DHT22;17110;52.602;12.998;2023-06-14T00:45:42;12.80;99.90
30300;DHT22;17110;52.602;12.998;2023-06-14T00:48:08;12.80;99.90
30300;DHT22;17110;52.602;12.998;2023-06-14T00:50:35;12.80;99.90
30300;DHT22;17110;52.602;12.998;2023-06-14T00:53:00;12.70;99.90
30300;DHT22;17110;52.602;12.998;2023-06-14T00:55:26;12.60;99.90
30300;DHT22;17110;52.602;12.998;2023-06-14T00:57:56;12.60;99.90
30300;DHT22;17110;52.602;12.998;2023-06-14T01:00:22;12.60;99.90
30300;DHT22;17110;52.602;12.998;2023-06-14T01:02:47;12.50;99.90
30300;DHT22;17110;52.602;12.998;2023-06-14T01:05:14;12.50;99.90
30300;DHT22;17110;52.602;12.998;2023-06-14T01:07:51;12.40;99.90
30300;DHT22;17110;52.602;12.998;2023-06-14T01:10:37;12.40;99.90
30300;DHT22;17110;52.602;12.998;2023-06-14T01:13:12;12.30;99.90
30300;DHT22;17110;52.602;12.998;2023-06-14T01:15:39;12.30;99.90
30300;DHT22;17110;52.602;12.998;2023-06-14T01:18:08;12.20;99.90
30300;DHT22;17110;52.602;12.998;2023-06-14T01:20:34;12.20;99.90
30300;DHT22;17110;52.602;12.998;2023-06-14T01:23:01;12.10;99.90
30300;DHT22;17110;52.602;12.998;2023-06-14T01:25:29;12.10;99.90
30300;DHT22;17110;52.602;12.998;2023-06-14T01:27:57;12.10;99.90
30300;DHT22;17110;52.602;12.998;2023-06-14T01:30:25;12.10;99.90
30300;DHT22;17110;52.602;12.998;2023-06-14T01:32:52;12.00;99.90
30300;DHT22;17110;52.602;12.998;2023-06-14T01:35:18;12.00;99.90
30300;DHT22;17110;52.602;12.998;2023-06-14T01:37:46;12.00;99.90
30300;DHT22;17110;52.602;12.998;2023-06-14T01:40:15;12.00;99.90
30300;DHT22;17110;52.602;12.998;2023-06-14T01:42:41;11.90;99.90
30300;DHT22;17110;52.602;12.998;2023-06-14T01:45:09;11.90;99.90
30300;DHT22;17110;52.602;12.998;2023-06-14T01:47:35;11.90;99.90
30300;DHT22;17110;52.602;12.998;2023-06-14T01:50:02;11.80;99.90
30300;DHT22;17110;52.602;12.998;2023-06-14T01:52:30;11.80;99.90
30300;DHT22;17110;52.602;12.998;2023-06-14T01:54:55;11.70;99.90
30300;DHT22;17110;52.602;12.998;2023-06-14T01:57:24;11.70;99.90
30300;DHT22;17110;52.602;12.998;2023-06-14T01:59:50;11.70;99.90
30300;DHT22;17110;52.602;12.998;2023-06-14T02:02:15;11.60;99.90
30300;DHT22;17110;52.602;12.998;2023-06-14T02:04:41;11.60;99.90
30300;DHT22;17110;52.602;12.998;2023-06-14T02:07:07;11.50;99.90
30300;DHT22;17110;52.602;12.998;2023-06-14T02:09:33;11.50;99.90
30300;DHT22;17110;52.602;12.998;2023-06-14T02:11:58;11.40;99.90
30300;DHT22;17110;52.602;12.998;2023-06-14T02:14:27;11.40;99.90
30300;DHT22;17110;52.602;12.998;2023-06-14T02:16:54;11.40;99.90
30300;DHT22;17110;52.602;12.998;2023-06-14T02:19:20;11.30;99.90
30300;DHT22;17110;52.602;12.998;2023-06-14T02:21:47;11.30;99.90
30300;DHT22;17110;52.602;12.998;2023-06-14T02:24:12;11.30;99.90
30300;DHT22;17110;52.602;12.998;2023-06-14T02:26:38;11.30;99.90
30300;DHT22;17110;52.602;12.998;2023-06-14T02:29:04;11.20;99.90
30300;DHT22;17110;52.602;12.998;2023-06-14T02:31:32;11.20;99.90
30300;DHT22;17110;52.602;12.998;2023-06-14T02:33:57;11.20;99.90
30300;DHT22;17110;52.602;12.998;2023-06-14T02:36:23;11.20;99.90
30300;DHT22;17110;52.602;12.998;2023-06-14T02:38:49;11.20;99.90
30300;DHT22;17110;52.602;12.998;2023-06-14T02:41:15;11.20;99.90
30300;DHT22;17110;52.602;12.998;2023-06-14T02:43:40;11.10;99.90
30300;DHT22;17110;52.602;12.998;2023-06-14T02:46:06;11.10;99.90
30300;DHT22;17110;52.602;12.998;2023-06-14T02:48:33;11.10;99.90
30300;DHT22;17110;52.602;12.998;2023-06-14T02:50:59;11.00;99.90
30300;DHT22;17110;52.602;12.998;2023-06-14T02:53:24;11.00;99.90
30300;DHT22;17110;52.602;12.998;2023-06-14T02:55:50;11.00;99.90
30300;DHT22;17110;52.602;12.998;2023-06-14T02:58:16;11.00;99.90
30300;DHT22;17110;52.602;12.998;2023-06-14T03:00:43;11.00;99.90
30300;DHT22;17110;52.602;12.998;2023-06-14T03:03:09;11.00;99.90
30300;DHT22;17110;52.602;12.998;2023-06-14T03:05:36;10.90;99.90
30300;DHT22;17110;52.602;12.998;2023-06-14T03:08:01;10.90;99.90
30300;DHT22;17110;52.602;12.998;2023-06-14T03:10:27;10.90;99.90
30300;DHT22;17110;52.602;12.998;2023-06-14T03:12:53;10.90;99.90
30300;DHT22;17110;52.602;12.998;2023-06-14T03:15:20;10.90;99.90
30300;DHT22;17110;52.602;12.998;2023-06-14T03:17:48;10.90;99.90
30300;DHT22;17110;52.602;12.998;2023-06-14T03:20:15;10.90;99.90
30300;DHT22;17110;52.602;12.998;2023-06-14T03:22:42;10.90;99.90
30300;DHT22;17110;52.602;12.998;2023-06-14T03:25:08;10.80;99.90
30300;DHT22;17110;52.602;12.998;2023-06-14T03:27:36;10.80;99.90
30300;DHT22;17110;52.602;12.998;2023-06-14T03:30:02;10.90;99.90
30300;DHT22;17110;52.602;12.998;2023-06-14T03:32:29;10.90;99.90
30300;DHT22;17110;52.602;12.998;2023-06-14T03:34:55;10.90;99.90
30300;DHT22;17110;52.602;12.998;2023-06-14T03:37:23;10.90;99.90
30300;DHT22;17110;52.602;12.998;2023-06-14T03:39:50;10.90;99.90
30300;DHT22;17110;52.602;12.998;2023-06-14T03:42:20;10.90;99.90
30300;DHT22;17110;52.602;12.998;2023-06-14T03:44:47;10.90;99.90
30300;DHT22;17110;52.602;12.998;2023-06-14T03:47:13;10.90;99.90
30300;DHT22;17110;52.602;12.998;2023-06-14T03:49:39;10.90;99.90
30300;DHT22;17110;52.602;12.998;2023-06-14T03:52:05;11.00;99.90
30300;DHT22;17110;52.602;12.998;2023-06-14T03:54:32;11.00;99.90
30300;DHT22;17110;52.602;12.998;2023-06-14T03:56:59;11.00;99.90
30300;DHT22;17110;52.602;12.998;2023-06-14T03:59:25;11.10;99.90
30300;DHT22;17110;52.602;12.998;2023-06-14T04:01:51;11.20;99.90
30300;DHT22;17110;52.602;12.998;2023-06-14T04:04:17;11.20;99.90
30300;DHT22;17110;52.602;12.998;2023-06-14T04:06:43;11.30;99.90
30300;DHT22;17110;52.602;12.998;2023-06-14T04:09:10;11.40;99.90
30300;DHT22;17110;52.602;12.998;2023-06-14T04:11:35;11.50;99.90
30300;DHT22;17110;52.602;12.998;2023-06-14T04:14:03;11.60;99.90
30300;DHT22;17110;52.602;12.998;2023-06-14T04:16:29;11.80;99.90
30300;DHT22;17110;52.602;12.998;2023-06-14T04:18:55;12.00;99.90
30300;DHT22;17110;52.602;12.998;2023-06-14T04:21:22;12.20;99.90
30300;DHT22;17110;52.602;12.998;2023-06-14T04:23:48;12.60;99.90
30300;DHT22;17110;52.602;12.998;2023-06-14T04:26:14;12.70;99.90
30300;DHT22;17110;52.602;12.998;2023-06-14T04:28:41;12.80;99.90
30300;DHT22;17110;52.602;12.998;2023-06-14T04:31:09;13.00;99.90
30300;DHT22;17110;52.602;12.998;2023-06-14T04:33:35;13.20;99.90
30300;DHT22;17110;52.602;12.998;2023-06-14T04:36:01;13.30;99.90
30300;DHT22;17110;52.602;12.998;2023-06-14T04:38:27;13.60;99.90
30300;DHT22;17110;52.602;12.998;2023-06-14T04:40:53;14.10;99.90
30300;DHT22;17110;52.602;12.998;2023-06-14T04:43:20;14.60;99.90
30300;DHT22;17110;52.602;12.998;2023-06-14T04:45:47;14.80;99.90
30300;DHT22;17110;52.602;12.998;2023-06-14T04:48:15;15.70;99.90
30300;DHT22;17110;52.602;12.998;2023-06-14T04:50:40;16.50;99.90
30300;DHT22;17110;52.602;12.998;2023-06-14T04:53:06;17.10;99.90
30300;DHT22;17110;52.602;12.998;2023-06-14T04:55:32;17.30;99.90
30300;DHT22;17110;52.602;12.998;2023-06-14T04:57:57;17.30;99.90
30300;DHT22;17110;52.602;12.998;2023-06-14T05:00:23;17.00;99.90
30300;DHT22;17110;52.602;12.998;2023-06-14T05:02:49;16.80;99.90
30300;DHT22;17110;52.602;12.998;2023-06-14T05:05:16;16.70;99.90
30300;DHT22;17110;52.602;12.998;2023-06-14T05:07:42;17.10;99.90
30300;DHT22;17110;52.602;12.998;2023-06-14T05:10:09;16.90;99.90
30300;DHT22;17110;52.602;12.998;2023-06-14T05:12:35;17.00;99.90
30300;DHT22;17110;52.602;12.998;2023-06-14T05:15:00;17.40;99.90
30300;DHT22;17110;52.602;12.998;2023-06-14T05:17:27;18.50;99.90
30300;DHT22;17110;52.602;12.998;2023-06-14T05:19:52;20.30;99.90
30300;DHT22;17110;52.602;12.998;2023-06-14T05:22:19;21.80;99.90
30300;DHT22;17110;52.602;12.998;2023-06-14T05:24:45;22.80;98.90
30300;DHT22;17110;52.602;12.998;2023-06-14T05:27:10;22.80;96.70
30300;DHT22;17110;52.602;12.998;2023-06-14T05:29:36;23.30;96.80
30300;DHT22;17110;52.602;12.998;2023-06-14T05:32:02;23.50;96.20
30300;DHT22;17110;52.602;12.998;2023-06-14T05:34:27;23.30;96.20
30300;DHT22;17110;52.602;12.998;2023-06-14T05:36:53;23.30;95.50
30300;DHT22;17110;52.602;12.998;2023-06-14T05:39:20;24.50;95.40
30300;DHT22;17110;52.602;12.998;2023-06-14T05:41:45;24.50;93.10
30300;DHT22;17110;52.602;12.998;2023-06-14T05:44:11;25.10;93.40
30300;DHT22;17110;52.602;12.998;2023-06-14T05:46:37;23.00;94.30
30300;DHT22;17110;52.602;12.998;2023-06-14T05:49:03;20.30;97.80
30300;DHT22;17110;52.602;12.998;2023-06-14T05:51:28;19.70;99.90
30300;DHT22;17110;52.602;12.998;2023-06-14T05:53:54;20.20;99.90
30300;DHT22;17110;52.602;12.998;2023-06-14T05:56:21;19.70;99.90
30300;DHT22;17110;52.602;12.998;2023-06-14T05:58:46;19.00;99.90
30300;DHT22;17110;52.602;12.998;2023-06-14T06:01:12;18.10;99.90
30300;DHT22;17110;52.602;12.998;2023-06-14T06:03:38;17.50;99.90
30300;DHT22;17110;52.602;12.998;2023-06-14T06:06:03;17.30;99.90
30300;DHT22;17110;52.602;12.998;2023-06-14T06:08:29;17.20;99.90
30300;DHT22;17110;52.602;12.998;2023-06-14T06:10:55;17.10;99.90
30300;DHT22;17110;52.602;12.998;2023-06-14T06:13:22;16.70;99.90
30300;DHT22;17110;52.602;12.998;2023-06-14T06:15:47;16.90;99.90
30300;DHT22;17110;52.602;12.998;2023-06-14T06:18:13;16.70;99.90
30300;DHT22;17110;52.602;12.998;2023-06-14T06:20:39;16.50;99.90
30300;DHT22;17110;52.602;12.998;2023-06-14T06:23:04;16.60;99.90
30300;DHT22;17110;52.602;12.998;2023-06-14T06:25:30;16.80;99.90
30300;DHT22;17110;52.602;12.998;2023-06-14T06:27:56;16.80;99.90
30300;DHT22;17110;52.602;12.998;2023-06-14T06:30:23;17.00;99.90
30300;DHT22;17110;52.602;12.998;2023-06-14T06:32:49;17.10;99.90
30300;DHT22;17110;52.602;12.998;2023-06-14T06:35:14;17.00;99.90
30300;DHT22;17110;52.602;12.998;2023-06-14T06:37:42;17.00;99.90
30300;DHT22;17110;52.602;12.998;2023-06-14T06:40:08;17.10;99.90
30300;DHT22;17110;52.602;12.998;2023-06-14T06:42:34;17.10;99.90
30300;DHT22;17110;52.602;12.998;2023-06-14T06:45:02;17.00;99.90
30300;DHT22;17110;52.602;12.998;2023-06-14T06:47:30;16.80;99.90
30300;DHT22;17110;52.602;12.998;2023-06-14T06:49:55;16.70;99.90
30300;DHT22;17110;52.602;12.998;2023-06-14T06:52:21;16.90;99.90
30300;DHT22;17110;52.602;12.998;2023-06-14T06:54:46;17.30;99.90
30300;DHT22;17110;52.602;12.998;2023-06-14T06:57:12;17.60;99.90
30300;DHT22;17110;52.602;12.998;2023-06-14T06:59:38;17.90;99.90
30300;DHT22;17110;52.602;12.998;2023-06-14T07:02:04;18.00;99.90
30300;DHT22;17110;52.602;12.998;2023-06-14T07:04:31;18.20;99.90
30300;DHT22;17110;52.602;12.998;2023-06-14T07:06:57;18.50;99.90
30300;DHT22;17110;52.602;12.998;2023-06-14T07:09:22;18.10;99.90
30300;DHT22;17110;52.602;12.998;2023-06-14T07:11:48;18.20;99.90
30300;DHT22;17110;52.602;12.998;2023-06-14T07:14:14;18.30;99.90
30300;DHT22;17110;52.602;12.998;2023-06-14T07:16:39;18.30;99.90
30300;DHT22;17110;52.602;12.998;2023-06-14T07:19:05;18.90;99.90
30300;DHT22;17110;52.602;12.998;2023-06-14T07:21:32;19.40;99.90
30300;DHT22;17110;52.602;12.998;2023-06-14T07:23:58;19.50;99.90
30300;DHT22;17110;52.602;12.998;2023-06-14T07:26:24;19.70;99.90
30300;DHT22;17110;52.602;12.998;2023-06-14T07:28:49;20.10;99.90
30300;DHT22;17110;52.602;12.998;2023-06-14T07:31:15;20.50;99.90
30300;DHT22;17110;52.602;12.998;2023-06-14T07:33:41;20.20;99.90
30300;DHT22;17110;52.602;12.998;2023-06-14T07:36:07;20.10;99.90
30300;DHT22;17110;52.602;12.998;2023-06-14T07:38:34;19.90;99.90
30300;DHT22;17110;52.602;12.998;2023-06-14T07:41:00;20.20;99.90
30300;DHT22;17110;52.602;12.998;2023-06-14T07:43:26;20.20;99.90
30300;DHT22;17110;52.602;12.998;2023-06-14T07:45:52;20.40;99.90
30300;DHT22;17110;52.602;12.998;2023-06-14T07:48:17;20.70;99.90
30300;DHT22;17110;52.602;12.998;2023-06-14T07:50:43;20.70;99.90
30300;DHT22;17110;52.602;12.998;2023-06-14T07:53:09;20.30;99.90
30300;DHT22;17110;52.602;12.998;2023-06-14T07:55:36;19.70;99.90
30300;DHT22;17110;52.602;12.998;2023-06-14T07:58:01;20.10;99.90
30300;DHT22;17110;52.602;12.998;2023-06-14T08:00:27;20.20;99.90
30300;DHT22;17110;52.602;12.998;2023-06-14T08:02:53;20.50;99.90
30300;DHT22;17110;52.602;12.998;2023-06-14T08:05:18;20.50;99.90
30300;DHT22;17110;52.602;12.998;2023-06-14T08:07:44;20.70;99.90
30300;DHT22;17110;52.602;12.998;2023-06-14T08:10:10;20.90;99.90
30300;DHT22;17110;52.602;12.998;2023-06-14T08:12:37;20.90;99.90
30300;DHT22;17110;52.602;12.998;2023-06-14T08:15:03;21.10;99.90
30300;DHT22;17110;52.602;12.998;2023-06-14T08:17:28;20.90;99.90
30300;DHT22;17110;52.602;12.998;2023-06-14T08:19:54;21.00;99.90
30300;DHT22;17110;52.602;12.998;2023-06-14T08:22:20;21.20;99.90
30300;DHT22;17110;52.602;12.998;2023-06-14T08:24:45;21.60;99.90
30300;DHT22;17110;52.602;12.998;2023-06-14T08:27:11;21.80;99.90
30300;DHT22;17110;52.602;12.998;2023-06-14T08:29:38;21.60;98.70
30300;DHT22;17110;52.602;12.998;2023-06-14T08:32:04;21.60;99.70
30300;DHT22;17110;52.602;12.998;2023-06-14T08:34:30;22.10;99.20
30300;DHT22;17110;52.602;12.998;2023-06-14T08:36:55;22.50;98.60
30300;DHT22;17110;52.602;12.998;2023-06-14T08:39:21;22.10;98.20
30300;DHT22;17110;52.602;12.998;2023-06-14T08:41:47;22.20;97.80
30300;DHT22;17110;52.602;12.998;2023-06-14T08:44:13;22.00;98.70
30300;DHT22;17110;52.602;12.998;2023-06-14T08:46:40;22.20;98.10
30300;DHT22;17110;52.602;12.998;2023-06-14T08:49:06;22.10;98.00
30300;DHT22;17110;52.602;12.998;2023-06-14T08:51:35;22.30;98.30
30300;DHT22;17110;52.602;12.998;2023-06-14T08:54:01;22.00;97.40
30300;DHT22;17110;52.602;12.998;2023-06-14T08:56:28;22.20;98.10
30300;DHT22;17110;52.602;12.998;2023-06-14T08:58:54;22.20;98.30
30300;DHT22;17110;52.602;12.998;2023-06-14T09:01:20;22.60;98.00
30300;DHT22;17110;52.602;12.998;2023-06-14T09:03:48;23.20;97.40
30300;DHT22;17110;52.602;12.998;2023-06-14T09:06:14;23.80;96.80
30300;DHT22;17110;52.602;12.998;2023-06-14T09:08:41;23.40;96.50
30300;DHT22;17110;52.602;12.998;2023-06-14T09:11:08;23.50;95.10
30300;DHT22;17110;52.602;12.998;2023-06-14T09:13:35;24.00;94.80
30300;DHT22;17110;52.602;12.998;2023-06-14T09:16:01;24.10;95.10
30300;DHT22;17110;52.602;12.998;2023-06-14T09:18:35;23.40;94.20
30300;DHT22;17110;52.602;12.998;2023-06-14T09:21:02;22.60;94.00
30300;DHT22;17110;52.602;12.998;2023-06-14T09:23:27;22.60;96.10
30300;DHT22;17110;52.602;12.998;2023-06-14T09:25:53;22.40;94.50
30300;DHT22;17110;52.602;12.998;2023-06-14T09:28:19;22.20;95.50
30300;DHT22;17110;52.602;12.998;2023-06-14T09:30:45;22.40;94.80
30300;DHT22;17110;52.602;12.998;2023-06-14T09:33:10;22.70;95.00
30300;DHT22;17110;52.602;12.998;2023-06-14T09:35:41;23.20;94.90
30300;DHT22;17110;52.602;12.998;2023-06-14T09:38:08;23.00;94.00
30300;DHT22;17110;52.602;12.998;2023-06-14T09:40:35;23.30;94.20
30300;DHT22;17110;52.602;12.998;2023-06-14T09:43:01;23.40;93.80
30300;DHT22;17110;52.602;12.998;2023-06-14T09:45:28;23.60;93.30
30300;DHT22;17110;52.602;12.998;2023-06-14T09:47:54;23.50;93.00
30300;DHT22;17110;52.602;12.998;2023-06-14T09:50:21;22.90;92.50
30300;DHT22;17110;52.602;12.998;2023-06-14T09:52:52;22.50;93.30
30300;DHT22;17110;52.602;12.998;2023-06-14T09:55:19;23.00;93.20
30300;DHT22;17110;52.602;12.998;2023-06-14T09:57:45;22.90;92.10
30300;DHT22;17110;52.602;12.998;2023-06-14T10:00:13;23.00;91.80
30300;DHT22;17110;52.602;12.998;2023-06-14T10:02:41;23.30;91.50
30300;DHT22;17110;52.602;12.998;2023-06-14T10:05:09;23.40;91.70
30300;DHT22;17110;52.602;12.998;2023-06-14T10:07:41;23.80;90.90
30300;DHT22;17110;52.602;12.998;2023-06-14T10:10:08;23.90;91.00
30300;DHT22;17110;52.602;12.998;2023-06-14T10:12:36;24.00;89.80
30300;DHT22;17110;52.602;12.998;2023-06-14T10:15:02;24.30;91.60
30300;DHT22;17110;52.602;12.998;2023-06-14T10:17:35;25.10;91.10
30300;DHT22;17110;52.602;12.998;2023-06-14T10:20:14;25.50;90.00
30300;DHT22;17110;52.602;12.998;2023-06-14T10:22:47;25.10;85.90
30300;DHT22;17110;52.602;12.998;2023-06-14T10:25:26;25.70;86.60
30300;DHT22;17110;52.602;12.998;2023-06-14T10:27:53;24.50;88.90
30300;DHT22;17110;52.602;12.998;2023-06-14T10:30:27;24.40;88.70
30300;DHT22;17110;52.602;12.998;2023-06-14T10:33:03;24.20;89.00
30300;DHT22;17110;52.602;12.998;2023-06-14T10:35:29;23.80;88.50
30300;DHT22;17110;52.602;12.998;2023-06-14T10:37:55;23.70;90.20
30300;DHT22;17110;52.602;12.998;2023-06-14T10:40:30;24.00;88.50
30300;DHT22;17110;52.602;12.998;2023-06-14T10:42:57;24.50;87.80
30300;DHT22;17110;52.602;12.998;2023-06-14T10:45:22;24.90;85.60
30300;DHT22;17110;52.602;12.998;2023-06-14T10:47:49;24.90;86.10
30300;DHT22;17110;52.602;12.998;2023-06-14T10:50:14;24.50;85.30
30300;DHT22;17110;52.602;12.998;2023-06-14T10:52:42;24.50;84.80
30300;DHT22;17110;52.602;12.998;2023-06-14T10:55:09;24.90;87.20
30300;DHT22;17110;52.602;12.998;2023-06-14T10:57:35;25.40;85.70
30300;DHT22;17110;52.602;12.998;2023-06-14T11:00:03;25.70;83.20
30300;DHT22;17110;52.602;12.998;2023-06-14T11:05:27;25.50;80.40
30300;DHT22;17110;52.602;12.998;2023-06-14T11:08:17;25.20;82.90
30300;DHT22;17110;52.602;12.998;2023-06-14T11:10:44;25.50;80.40
30300;DHT22;17110;52.602;12.998;2023-06-14T11:13:10;25.30;80.20
30300;DHT22;17110;52.602;12.998;2023-06-14T11:15:38;25.50;80.40
30300;DHT22;17110;52.602;12.998;2023-06-14T11:18:05;26.10;81.90
30300;DHT22;17110;52.602;12.998;2023-06-14T11:20:32;26.10;78.60
30300;DHT22;17110;52.602;12.998;2023-06-14T11:22:58;25.80;78.10
30300;DHT22;17110;52.602;12.998;2023-06-14T11:25:25;25.50;76.90
30300;DHT22;17110;52.602;12.998;2023-06-14T11:27:50;25.60;77.70
30300;DHT22;17110;52.602;12.998;2023-06-14T11:30:16;24.90;76.40
30300;DHT22;17110;52.602;12.998;2023-06-14T11:32:46;24.90;76.40
30300;DHT22;17110;52.602;12.998;2023-06-14T11:35:12;24.60;77.20
30300;DHT22;17110;52.602;12.998;2023-06-14T11:37:38;24.40;78.00
30300;DHT22;17110;52.602;12.998;2023-06-14T11:40:04;24.80;78.80
30300;DHT22;17110;52.602;12.998;2023-06-14T11:42:32;24.60;80.10
30300;DHT22;17110;52.602;12.998;2023-06-14T11:44:57;24.90;79.90
30300;DHT22;17110;52.602;12.998;2023-06-14T11:47:23;24.50;78.40
30300;DHT22;17110;52.602;12.998;2023-06-14T11:49:50;24.90;78.20
30300;DHT22;17110;52.602;12.998;2023-06-14T11:52:17;25.50;78.60
30300;DHT22;17110;52.602;12.998;2023-06-14T11:54:43;25.80;77.50
30300;DHT22;17110;52.602;12.998;2023-06-14T11:57:09;25.90;76.60
30300;DHT22;17110;52.602;12.998;2023-06-14T11:59:38;25.70;77.40
30300;DHT22;17110;52.602;12.998;2023-06-14T12:02:04;25.40;77.20
30300;DHT22;17110;52.602;12.998;2023-06-14T12:04:30;25.10;78.90
30300;DHT22;17110;52.602;12.998;2023-06-14T12:06:57;25.00;76.30
30300;DHT22;17110;52.602;12.998;2023-06-14T12:09:23;24.60;78.00
30300;DHT22;17110;52.602;12.998;2023-06-14T12:11:49;24.40;78.40
30300;DHT22;17110;52.602;12.998;2023-06-14T12:14:14;25.20;79.00
30300;DHT22;17110;52.602;12.998;2023-06-14T12:16:40;26.00;78.80
30300;DHT22;17110;52.602;12.998;2023-06-14T12:19:13;26.40;76.00
30300;DHT22;17110;52.602;12.998;2023-06-14T12:21:40;26.30;74.70
30300;DHT22;17110;52.602;12.998;2023-06-14T12:24:07;25.70;74.00
30300;DHT22;17110;52.602;12.998;2023-06-14T12:26:34;26.30;76.20
30300;DHT22;17110;52.602;12.998;2023-06-14T12:29:05;26.80;75.60
30300;DHT22;17110;52.602;12.998;2023-06-14T12:31:30;27.40;73.60
30300;DHT22;17110;52.602;12.998;2023-06-14T12:33:56;27.20;73.50
30300;DHT22;17110;52.602;12.998;2023-06-14T12:36:22;26.70;74.70
30300;DHT22;17110;52.602;12.998;2023-06-14T12:38:47;27.10;73.30
30300;DHT22;17110;52.602;12.998;2023-06-14T12:41:14;27.50;74.50
30300;DHT22;17110;52.602;12.998;2023-06-14T12:43:40;27.40;73.90
30300;DHT22;17110;52.602;12.998;2023-06-14T12:46:06;27.30;73.20
30300;DHT22;17110;52.602;12.998;2023-06-14T12:48:31;26.60;73.30
30300;DHT22;17110;52.602;12.998;2023-06-14T12:50:57;26.70;72.80
30300;DHT22;17110;52.602;12.998;2023-06-14T12:53:23;27.30;73.60
30300;DHT22;17110;52.602;12.998;2023-06-14T12:55:48;27.80;72.10
30300;DHT22;17110;52.602;12.998;2023-06-14T12:58:15;27.90;71.90
30300;DHT22;17110;52.602;12.998;2023-06-14T13:00:41;27.90;71.70
30300;DHT22;17110;52.602;12.998;2023-06-14T13:03:07;28.00;70.00
30300;DHT22;17110;52.602;12.998;2023-06-14T13:05:32;28.20;71.10
30300;DHT22;17110;52.602;12.998;2023-06-14T13:07:58;28.00;69.30
30300;DHT22;17110;52.602;12.998;2023-06-14T13:10:24;26.40;69.40
30300;DHT22;17110;52.602;12.998;2023-06-14T13:12:49;25.80;72.90
30300;DHT22;17110;52.602;12.998;2023-06-14T13:15:17;26.00;73.40
30300;DHT22;17110;52.602;12.998;2023-06-14T13:17:42;25.60;72.50
30300;DHT22;17110;52.602;12.998;2023-06-14T13:20:09;25.60;73.20
30300;DHT22;17110;52.602;12.998;2023-06-14T13:22:35;25.60;73.20
30300;DHT22;17110;52.602;12.998;2023-06-14T13:25:01;25.50;73.10
30300;DHT22;17110;52.602;12.998;2023-06-14T13:27:27;25.60;73.60
30300;DHT22;17110;52.602;12.998;2023-06-14T13:29:53;25.60;73.20
30300;DHT22;17110;52.602;12.998;2023-06-14T13:32:21;25.30;74.30
30300;DHT22;17110;52.602;12.998;2023-06-14T13:34:47;24.40;73.90
30300;DHT22;17110;52.602;12.998;2023-06-14T13:37:13;24.20;75.90
30300;DHT22;17110;52.602;12.998;2023-06-14T13:39:39;24.00;76.30
30300;DHT22;17110;52.602;12.998;2023-06-14T13:42:05;23.70;77.20
30300;DHT22;17110;52.602;12.998;2023-06-14T13:44:30;23.30;77.50
30300;DHT22;17110;52.602;12.998;2023-06-14T13:46:56;23.30;79.20
30300;DHT22;17110;52.602;12.998;2023-06-14T13:49:23;23.00;78.90
30300;DHT22;17110;52.602;12.998;2023-06-14T13:51:49;22.80;79.70
30300;DHT22;17110;52.602;12.998;2023-06-14T13:54:19;22.80;79.00
30300;DHT22;17110;52.602;12.998;2023-06-14T13:56:45;22.80;79.60
30300;DHT22;17110;52.602;12.998;2023-06-14T13:59:11;22.80;80.50
30300;DHT22;17110;52.602;12.998;2023-06-14T14:01:37;22.90;80.30
30300;DHT22;17110;52.602;12.998;2023-06-14T14:04:03;22.70;79.00
30300;DHT22;17110;52.602;12.998;2023-06-14T14:06:30;22.80;80.20
30300;DHT22;17110;52.602;12.998;2023-06-14T14:08:55;22.60;79.40
30300;DHT22;17110;52.602;12.998;2023-06-14T14:11:21;22.70;80.90
30300;DHT22;17110;52.602;12.998;2023-06-14T14:13:47;22.60;80.50
30300;DHT22;17110;52.602;12.998;2023-06-14T14:16:13;22.70;80.60
30300;DHT22;17110;52.602;12.998;2023-06-14T14:18:38;22.70;81.60
30300;DHT22;17110;52.602;12.998;2023-06-14T14:21:04;22.50;80.20
30300;DHT22;17110;52.602;12.998;2023-06-14T14:23:31;22.50;80.10
30300;DHT22;17110;52.602;12.998;2023-06-14T14:25:57;22.60;80.80
30300;DHT22;17110;52.602;12.998;2023-06-14T14:28:23;22.50;81.60
30300;DHT22;17110;52.602;12.998;2023-06-14T14:30:48;22.50;80.30
30300;DHT22;17110;52.602;12.998;2023-06-14T14:33:14;22.50;81.40
30300;DHT22;17110;52.602;12.998;2023-06-14T14:35:40;22.40;81.10
30300;DHT22;17110;52.602;12.998;2023-06-14T14:38:05;22.40;81.60
30300;DHT22;17110;52.602;12.998;2023-06-14T14:40:32;22.50;82.00
30300;DHT22;17110;52.602;12.998;2023-06-14T14:42:58;22.50;81.80
30300;DHT22;17110;52.602;12.998;2023-06-14T14:45:24;22.60;82.30
30300;DHT22;17110;52.602;12.998;2023-06-14T14:47:50;22.70;82.30
30300;DHT22;17110;52.602;12.998;2023-06-14T14:50:15;22.70;82.70
30300;DHT22;17110;52.602;12.998;2023-06-14T14:52:41;22.60;81.20
30300;DHT22;17110;52.602;12.998;2023-06-14T14:55:07;22.50;82.10
30300;DHT22;17110;52.602;12.998;2023-06-14T14:57:34;22.40;82.40
30300;DHT22;17110;52.602;12.998;2023-06-14T15:00:00;22.40;83.70
30300;DHT22;17110;52.602;12.998;2023-06-14T15:02:26;22.30;82.90
30300;DHT22;17110;52.602;12.998;2023-06-14T15:04:51;22.30;82.90
30300;DHT22;17110;52.602;12.998;2023-06-14T15:07:17;22.30;82.40
30300;DHT22;17110;52.602;12.998;2023-06-14T15:09:42;22.30;82.70
30300;DHT22;17110;52.602;12.998;2023-06-14T15:12:10;22.20;82.30
30300;DHT22;17110;52.602;12.998;2023-06-14T15:14:37;22.20;83.30